createdAt,value
2022-11-10T00:00:50.595Z,0
2022-11-10T00:01:50.592Z,0
2022-11-10T00:02:50.587Z,0
2022-11-10T00:03:50.657Z,0
2022-11-10T00:04:50.595Z,0
2022-11-10T00:05:50.592Z,0
2022-11-10T00:06:50.663Z,0
2022-11-10T00:07:50.591Z,0
2022-11-10T00:08:50.619Z,0
2022-11-10T00:09:50.784Z,0
2022-11-10T00:10:50.593Z,0
2022-11-10T00:11:50.597Z,0
2022-11-10T00:12:50.594Z,0
2022-11-10T00:13:50.621Z,0
2022-11-10T00:14:50.595Z,0
2022-11-10T00:15:50.587Z,0
2022-11-10T00:16:50.588Z,0
2022-11-10T00:17:50.589Z,0
2022-11-10T00:18:50.608Z,0
2022-11-10T00:19:50.589Z,0
2022-11-10T00:20:50.630Z,0
2022-11-10T00:21:50.606Z,0
2022-11-10T00:22:50.608Z,0
2022-11-10T00:23:50.630Z,0
2022-11-10T00:24:50.622Z,0
2022-11-10T00:25:50.609Z,0
2022-11-10T00:26:50.603Z,0
2022-11-10T00:27:50.607Z,0
2022-11-10T00:28:50.610Z,0
2022-11-10T00:29:50.606Z,0
2022-11-10T00:30:50.594Z,0
2022-11-10T00:31:50.603Z,0
2022-11-10T00:32:50.608Z,0
2022-11-10T00:33:50.628Z,0
2022-11-10T00:34:50.588Z,0
2022-11-10T00:35:50.609Z,0
2022-11-10T00:36:50.603Z,0
2022-11-10T00:37:50.612Z,0
2022-11-10T00:38:50.625Z,0
2022-11-10T00:39:50.636Z,0
2022-11-10T00:40:50.602Z,0
2022-11-10T00:41:50.611Z,0
2022-11-10T00:42:50.611Z,0
2022-11-10T00:43:50.616Z,0
2022-11-10T00:44:50.610Z,0
2022-11-10T00:45:50.611Z,0
2022-11-10T00:46:50.610Z,0
2022-11-10T00:47:50.603Z,0
2022-11-10T00:48:50.607Z,0
2022-11-10T00:49:50.615Z,0
2022-11-10T00:50:50.604Z,0
2022-11-10T00:51:50.614Z,0
2022-11-10T00:52:50.609Z,0
2022-11-10T00:53:50.630Z,0
2022-11-10T00:54:50.622Z,0
2022-11-10T00:55:50.610Z,0
2022-11-10T00:56:50.614Z,0
2022-11-10T00:57:50.616Z,0
2022-11-10T00:58:50.620Z,0
2022-11-10T00:59:50.608Z,0
2022-11-10T01:00:50.674Z,0
2022-11-10T01:01:50.611Z,0
2022-11-10T01:02:50.603Z,0
2022-11-10T01:03:50.619Z,0
2022-11-10T01:04:50.607Z,0
2022-11-10T01:05:50.619Z,0
2022-11-10T01:06:50.647Z,0
2022-11-10T01:07:50.614Z,0
2022-11-10T01:08:50.609Z,0
2022-11-10T01:09:50.823Z,0
2022-11-10T01:10:50.597Z,0
2022-11-10T01:11:50.590Z,0
2022-11-10T01:12:50.593Z,0
2022-11-10T01:13:50.611Z,0
2022-11-10T01:14:50.588Z,0
2022-11-10T01:15:50.588Z,0
2022-11-10T01:16:50.587Z,0
2022-11-10T01:17:50.585Z,0
2022-11-10T01:18:50.596Z,0
2022-11-10T01:19:50.624Z,0
2022-11-10T01:20:50.587Z,0
2022-11-10T01:21:50.589Z,0
2022-11-10T01:22:50.596Z,0
2022-11-10T01:23:50.612Z,0
2022-11-10T01:24:50.620Z,0
2022-11-10T01:25:50.594Z,0
2022-11-10T01:26:50.606Z,0
2022-11-10T01:27:50.606Z,0
2022-11-10T01:28:50.620Z,0
2022-11-10T01:29:50.613Z,0
2022-11-10T01:30:50.612Z,0
2022-11-10T01:31:50.602Z,0
2022-11-10T01:32:50.610Z,0
2022-11-10T01:33:50.614Z,0
2022-11-10T01:34:50.604Z,0
2022-11-10T01:35:50.600Z,0
2022-11-10T01:36:50.585Z,0
2022-11-10T01:37:50.608Z,0
2022-11-10T01:38:50.619Z,0
2022-11-10T01:39:50.632Z,0
2022-11-10T01:40:50.617Z,0
2022-11-10T01:41:50.638Z,0
2022-11-10T01:42:50.608Z,0
2022-11-10T01:43:50.681Z,0
2022-11-10T01:44:50.619Z,0
2022-11-10T01:45:50.609Z,0
2022-11-10T01:46:50.594Z,0
2022-11-10T01:47:50.594Z,0
2022-11-10T01:48:50.612Z,0
2022-11-10T01:49:50.613Z,0
2022-11-10T01:50:50.609Z,0
2022-11-10T01:51:50.613Z,0
2022-11-10T01:52:50.609Z,0
2022-11-10T01:53:50.625Z,0
2022-11-10T01:54:50.623Z,0
2022-11-10T01:55:50.621Z,0
2022-11-10T01:56:50.626Z,0
2022-11-10T01:57:50.608Z,0
2022-11-10T01:58:50.636Z,0
2022-11-10T01:59:50.613Z,0
2022-11-10T02:00:50.643Z,0
2022-11-10T02:01:50.606Z,0
2022-11-10T02:02:50.601Z,0
2022-11-10T02:03:50.621Z,0
2022-11-10T02:04:50.601Z,0
2022-11-10T02:05:50.595Z,0
2022-11-10T02:06:50.607Z,0
2022-11-10T02:07:50.602Z,0
2022-11-10T02:08:50.608Z,0
2022-11-10T02:09:50.628Z,0
2022-11-10T02:10:50.609Z,0
2022-11-10T02:11:50.596Z,0
2022-11-10T02:12:50.608Z,0
2022-11-10T02:13:50.608Z,0
2022-11-10T02:14:50.601Z,0
2022-11-10T02:15:50.607Z,0
2022-11-10T02:16:50.584Z,0
2022-11-10T02:17:50.589Z,0
2022-11-10T02:18:50.599Z,0
2022-11-10T02:19:50.591Z,0
2022-11-10T02:20:50.584Z,0
2022-11-10T02:21:50.580Z,0
2022-11-10T02:22:50.588Z,0
2022-11-10T02:23:50.591Z,0
2022-11-10T02:24:50.610Z,0
2022-11-10T02:25:50.581Z,0
2022-11-10T02:26:50.583Z,0
2022-11-10T02:27:50.577Z,0
2022-11-10T02:28:50.589Z,0
2022-11-10T02:29:50.584Z,0
2022-11-10T02:30:50.598Z,0
2022-11-10T02:31:50.588Z,0
2022-11-10T02:32:50.580Z,0
2022-11-10T02:33:50.684Z,0
2022-11-10T02:34:50.579Z,0
2022-11-10T02:35:50.597Z,0
2022-11-10T02:36:50.599Z,0
2022-11-10T02:37:50.578Z,0
2022-11-10T02:38:50.602Z,0
2022-11-10T02:39:50.620Z,0
2022-11-10T02:40:50.606Z,0
2022-11-10T02:41:50.608Z,0
2022-11-10T02:42:50.594Z,0
2022-11-10T02:43:50.615Z,0
2022-11-10T02:44:50.600Z,0
2022-11-10T02:45:50.595Z,0
2022-11-10T02:46:50.596Z,0
2022-11-10T02:47:50.614Z,0
2022-11-10T02:48:50.585Z,0
2022-11-10T02:49:50.593Z,0
2022-11-10T02:50:50.607Z,0
2022-11-10T02:51:50.596Z,0
2022-11-10T02:52:50.607Z,0
2022-11-10T02:53:50.607Z,0
2022-11-10T02:54:50.612Z,0
2022-11-10T02:55:50.605Z,0
2022-11-10T02:56:50.599Z,0
2022-11-10T02:57:50.606Z,0
2022-11-10T02:58:50.607Z,0
2022-11-10T02:59:50.602Z,0
2022-11-10T03:00:50.602Z,0
2022-11-10T03:01:50.595Z,0
2022-11-10T03:02:50.591Z,0
2022-11-10T03:03:50.604Z,0
2022-11-10T03:04:50.597Z,0
2022-11-10T03:05:50.596Z,0
2022-11-10T03:06:50.663Z,0
2022-11-10T03:07:50.577Z,0
2022-11-10T03:08:50.632Z,0
2022-11-10T03:09:50.633Z,0
2022-11-10T03:10:50.593Z,0
2022-11-10T03:11:50.659Z,0
2022-11-10T03:12:50.604Z,0
2022-11-10T03:14:01.518Z,0
2022-11-10T03:14:50.615Z,0
2022-11-10T03:15:50.586Z,0
2022-11-10T03:16:50.598Z,0
2022-11-10T03:17:50.645Z,0
2022-11-10T03:18:50.587Z,0
2022-11-10T03:19:50.602Z,0
2022-11-10T03:20:50.610Z,0
2022-11-10T03:21:50.595Z,0
2022-11-10T03:22:50.593Z,0
2022-11-10T03:23:50.624Z,0
2022-11-10T03:24:50.605Z,0
2022-11-10T03:25:50.578Z,0
2022-11-10T03:26:50.578Z,0
2022-11-10T03:27:50.584Z,0
2022-11-10T03:28:50.595Z,0
2022-11-10T03:29:50.584Z,0
2022-11-10T03:30:50.584Z,0
2022-11-10T03:31:50.672Z,0
2022-11-10T03:32:50.588Z,0
2022-11-10T03:33:50.597Z,0
2022-11-10T03:34:50.592Z,0
2022-11-10T03:35:50.587Z,0
2022-11-10T03:36:50.578Z,0
2022-11-10T03:37:50.577Z,0
2022-11-10T03:38:50.588Z,0
2022-11-10T03:39:50.671Z,0
2022-11-10T03:41:17.529Z,0
2022-11-10T03:41:50.653Z,0
2022-11-10T03:42:50.593Z,0
2022-11-10T03:43:50.626Z,0
2022-11-10T03:44:50.614Z,0
2022-11-10T03:45:50.595Z,0
2022-11-10T03:46:51.856Z,0
2022-11-10T03:47:50.604Z,0
2022-11-10T03:48:53.737Z,0
2022-11-10T03:49:50.578Z,0
2022-11-10T03:50:50.591Z,0
2022-11-10T03:51:50.596Z,0
2022-11-10T03:52:50.591Z,0
2022-11-10T03:53:50.611Z,0
2022-11-10T03:54:50.620Z,0
2022-11-10T03:55:50.620Z,0
2022-11-10T03:56:50.602Z,0
2022-11-10T03:57:50.607Z,0
2022-11-10T03:58:50.610Z,0
2022-11-10T03:59:50.599Z,0
2022-11-10T04:00:50.582Z,0
2022-11-10T04:01:50.678Z,0
2022-11-10T04:02:50.595Z,0
2022-11-10T04:03:51.753Z,0
2022-11-10T04:04:50.598Z,0
2022-11-10T04:05:50.601Z,0
2022-11-10T04:06:50.630Z,0
2022-11-10T04:07:50.603Z,0
2022-11-10T04:08:50.610Z,0
2022-11-10T04:09:50.630Z,0
2022-11-10T04:10:50.597Z,0
2022-11-10T04:11:50.590Z,0
2022-11-10T04:12:50.605Z,0
2022-11-10T04:13:50.636Z,0
2022-11-10T04:14:50.598Z,0
2022-11-10T04:15:50.609Z,0
2022-11-10T04:16:50.605Z,0
2022-11-10T04:17:50.604Z,0
2022-11-10T04:18:50.604Z,0
2022-11-10T04:19:50.601Z,0
2022-11-10T04:20:50.602Z,0
2022-11-10T04:21:50.592Z,0
2022-11-10T04:22:50.580Z,0
2022-11-10T04:23:50.627Z,0
2022-11-10T04:24:50.612Z,0
2022-11-10T04:25:50.608Z,0
2022-11-10T04:26:50.604Z,0
2022-11-10T04:27:50.599Z,0
2022-11-10T04:28:50.665Z,0
2022-11-10T04:29:50.613Z,0
2022-11-10T04:30:50.583Z,0
2022-11-10T04:31:50.595Z,0
2022-11-10T04:32:50.600Z,0
2022-11-10T04:33:50.606Z,0
2022-11-10T04:34:50.578Z,0
2022-11-10T04:35:50.584Z,0
2022-11-10T04:36:50.579Z,0
2022-11-10T04:37:50.595Z,0
2022-11-10T04:38:50.593Z,0
2022-11-10T04:39:50.595Z,0
2022-11-10T04:40:50.597Z,0
2022-11-10T04:41:50.592Z,0
2022-11-10T04:42:50.584Z,0
2022-11-10T04:43:50.610Z,0
2022-11-10T04:44:50.583Z,0
2022-11-10T04:45:50.578Z,0
2022-11-10T04:46:50.577Z,0
2022-11-10T04:47:50.584Z,0
2022-11-10T04:48:50.596Z,0
2022-11-10T04:49:50.578Z,0
2022-11-10T04:50:50.581Z,0
2022-11-10T04:51:50.628Z,0
2022-11-10T04:52:50.577Z,0
2022-11-10T04:53:50.593Z,0
2022-11-10T04:54:50.608Z,0
2022-11-10T04:55:50.609Z,0
2022-11-10T04:56:50.622Z,0
2022-11-10T04:57:50.602Z,0
2022-11-10T04:58:50.616Z,0
2022-11-10T04:59:50.604Z,0
2022-11-10T05:00:50.677Z,0
2022-11-10T05:01:50.619Z,0
2022-11-10T05:02:50.603Z,0
2022-11-10T05:03:50.616Z,0
2022-11-10T05:04:50.607Z,0
2022-11-10T05:05:50.601Z,0
2022-11-10T05:06:50.657Z,0
2022-11-10T05:07:50.593Z,0
2022-11-10T05:08:50.609Z,0
2022-11-10T05:09:50.622Z,0
2022-11-10T05:10:50.588Z,0
2022-11-10T05:11:50.606Z,0
2022-11-10T05:12:50.612Z,0
2022-11-10T05:13:50.608Z,0
2022-11-10T05:14:50.592Z,0
2022-11-10T05:15:50.600Z,0
2022-11-10T05:16:50.600Z,0
2022-11-10T05:17:50.598Z,0
2022-11-10T05:18:50.597Z,0
2022-11-10T05:19:50.594Z,0
2022-11-10T05:20:50.606Z,0
2022-11-10T05:21:50.611Z,0
2022-11-10T05:22:50.598Z,0
2022-11-10T05:23:50.619Z,0
2022-11-10T05:24:50.620Z,0
2022-11-10T05:25:50.582Z,0
2022-11-10T05:26:50.599Z,0
2022-11-10T05:27:50.592Z,0
2022-11-10T05:28:50.598Z,0
2022-11-10T05:29:50.591Z,0
2022-11-10T05:30:50.603Z,0
2022-11-10T05:31:51.693Z,0
2022-11-10T05:32:50.633Z,0
2022-11-10T05:33:50.613Z,0
2022-11-10T05:34:50.595Z,0
2022-11-10T05:35:50.599Z,0
2022-11-10T05:36:50.590Z,0
2022-11-10T05:37:50.592Z,0
2022-11-10T05:38:50.665Z,0
2022-11-10T05:39:50.609Z,1
2022-11-10T05:40:50.610Z,1
2022-11-10T05:41:50.615Z,3
2022-11-10T05:42:50.597Z,3
2022-11-10T05:43:50.609Z,5
2022-11-10T05:44:50.633Z,7
2022-11-10T05:45:50.586Z,7
2022-11-10T05:46:50.583Z,9
2022-11-10T05:47:50.586Z,11
2022-11-10T05:48:50.595Z,14
2022-11-10T05:49:50.577Z,18
2022-11-10T05:50:50.579Z,22
2022-11-10T05:51:50.576Z,25
2022-11-10T05:52:50.627Z,31
2022-11-10T05:53:50.591Z,36
2022-11-10T05:54:50.615Z,44
2022-11-10T05:55:50.584Z,53
2022-11-10T05:56:50.582Z,60
2022-11-10T05:57:50.596Z,70
2022-11-10T05:58:50.594Z,81
2022-11-10T05:59:50.574Z,92
2022-11-10T06:00:50.584Z,101
2022-11-10T06:01:50.587Z,123
2022-11-10T06:02:50.576Z,134
2022-11-10T06:03:50.681Z,141
2022-11-10T06:04:50.598Z,145
2022-11-10T06:05:50.587Z,151
2022-11-10T06:06:50.623Z,158
2022-11-10T06:07:50.600Z,167
2022-11-10T06:08:50.606Z,167
2022-11-10T06:09:50.776Z,189
2022-11-10T06:10:50.597Z,204
2022-11-10T06:11:50.597Z,219
2022-11-10T06:12:50.596Z,237
2022-11-10T06:13:50.609Z,259
2022-11-10T06:14:50.593Z,293
2022-11-10T06:15:50.855Z,324
2022-11-10T06:16:50.583Z,324
2022-11-10T06:17:50.590Z,392
2022-11-10T06:18:50.603Z,425
2022-11-10T06:19:50.582Z,455
2022-11-10T06:20:50.605Z,484
2022-11-10T06:21:52.837Z,506
2022-11-10T06:22:50.605Z,529
2022-11-10T06:23:50.599Z,556
2022-11-10T06:24:50.648Z,586
2022-11-10T06:25:50.588Z,615
2022-11-10T06:26:50.597Z,639
2022-11-10T06:27:50.584Z,639
2022-11-10T06:28:50.604Z,693
2022-11-10T06:29:50.599Z,718
2022-11-10T06:30:50.606Z,742
2022-11-10T06:31:50.600Z,768
2022-11-10T06:32:50.600Z,796
2022-11-10T06:33:50.613Z,823
2022-11-10T06:34:50.615Z,853
2022-11-10T06:35:50.601Z,884
2022-11-10T06:36:50.590Z,912
2022-11-10T06:37:50.592Z,941
2022-11-10T06:38:50.606Z,973
2022-11-10T06:39:50.609Z,1004
2022-11-10T06:40:50.600Z,1037
2022-11-10T06:41:50.598Z,1072
2022-11-10T06:42:50.582Z,1105
2022-11-10T06:43:50.607Z,1144
2022-11-10T06:44:50.591Z,1179
2022-11-10T06:45:50.594Z,1218
2022-11-10T06:46:50.594Z,1257
2022-11-10T06:47:50.597Z,1297
2022-11-10T06:48:50.600Z,1336
2022-11-10T06:49:50.601Z,1387
2022-11-10T06:50:50.594Z,1435
2022-11-10T06:51:50.608Z,1524
2022-11-10T06:52:50.601Z,1664
2022-11-10T06:53:50.613Z,1817
2022-11-10T06:54:50.633Z,2254
2022-11-10T06:55:50.605Z,2254
2022-11-10T06:56:50.601Z,3610
2022-11-10T06:57:50.600Z,3610
2022-11-10T06:58:50.603Z,4051
2022-11-10T06:59:50.583Z,4300
2022-11-10T07:00:50.683Z,4713
2022-11-10T07:01:50.580Z,5195
2022-11-10T07:02:50.579Z,5782
2022-11-10T07:04:17.663Z,6659
2022-11-10T07:04:50.590Z,7586
2022-11-10T07:05:50.586Z,8860
2022-11-10T07:06:50.668Z,10047
2022-11-10T07:07:50.581Z,11273
2022-11-10T07:08:50.587Z,11802
2022-11-10T07:09:50.620Z,11802
2022-11-10T07:10:50.589Z,13040
2022-11-10T07:11:50.600Z,13079
2022-11-10T07:12:50.583Z,12813
2022-11-10T07:13:50.597Z,12600
2022-11-10T07:14:50.587Z,12318
2022-11-10T07:15:50.593Z,12307
2022-11-10T07:16:50.591Z,12541
2022-11-10T07:17:50.584Z,12511
2022-11-10T07:18:50.605Z,12660
2022-11-10T07:19:50.586Z,12660
2022-11-10T07:20:50.583Z,13241
2022-11-10T07:21:50.599Z,13748
2022-11-10T07:22:50.609Z,14220
2022-11-10T07:23:50.616Z,14465
2022-11-10T07:24:50.607Z,14618
2022-11-10T07:25:50.601Z,14721
2022-11-10T07:26:50.595Z,15014
2022-11-10T07:27:50.602Z,14424
2022-11-10T07:28:50.615Z,14386
2022-11-10T07:29:50.596Z,14529
2022-11-10T07:30:50.582Z,14529
2022-11-10T07:31:50.595Z,14867
2022-11-10T07:32:50.595Z,14760
2022-11-10T07:33:54.390Z,14517
2022-11-10T07:34:50.604Z,14817
2022-11-10T07:35:50.596Z,14649
2022-11-10T07:36:50.592Z,14786
2022-11-10T07:37:50.590Z,15521
2022-11-10T07:38:50.596Z,15011
2022-11-10T07:39:50.607Z,15003
2022-11-10T07:40:50.630Z,15090
2022-11-10T07:41:52.613Z,15374
2022-11-10T07:42:50.593Z,15715
2022-11-10T07:43:50.606Z,15728
2022-11-10T07:44:50.610Z,15436
2022-11-10T07:45:50.606Z,15471
2022-11-10T07:46:50.613Z,15774
2022-11-10T07:47:50.604Z,16891
2022-11-10T07:48:50.624Z,15893
2022-11-10T07:49:50.599Z,15860
2022-11-10T07:50:50.597Z,15849
2022-11-10T07:51:50.582Z,15849
2022-11-10T07:52:50.597Z,16080
2022-11-10T07:53:50.611Z,15460
2022-11-10T07:54:50.606Z,14802
2022-11-10T07:55:50.610Z,14458
2022-11-10T07:56:50.596Z,14581
2022-11-10T07:57:50.600Z,14686
2022-11-10T07:58:50.609Z,14439
2022-11-10T07:59:52.872Z,14461
2022-11-10T08:00:50.596Z,14500
2022-11-10T08:01:50.729Z,14310
2022-11-10T08:02:50.606Z,14249
2022-11-10T08:03:50.605Z,14282
2022-11-10T08:04:50.597Z,14282
2022-11-10T08:05:50.580Z,14122
2022-11-10T08:06:50.699Z,13973
2022-11-10T08:07:50.638Z,14013
2022-11-10T08:08:50.610Z,13534
2022-11-10T08:09:50.613Z,13534
2022-11-10T08:10:50.582Z,13224
2022-11-10T08:11:50.603Z,13107
2022-11-10T08:12:50.576Z,13735
2022-11-10T08:13:50.601Z,12694
2022-11-10T08:14:50.580Z,13121
2022-11-10T08:15:50.580Z,13682
2022-11-10T08:16:50.587Z,13772
2022-11-10T08:17:50.577Z,13788
2022-11-10T08:18:50.583Z,13551
2022-11-10T08:19:50.577Z,13857
2022-11-10T08:20:50.597Z,13903
2022-11-10T08:21:50.580Z,13464
2022-11-10T08:22:50.576Z,9945
2022-11-10T08:23:50.594Z,9945
2022-11-10T08:24:50.606Z,13890
2022-11-10T08:25:50.597Z,9005
2022-11-10T08:26:50.609Z,11687
2022-11-10T08:27:50.594Z,7826
2022-11-10T08:28:50.608Z,8624
2022-11-10T08:29:50.597Z,9088
2022-11-10T08:30:50.604Z,7431
2022-11-10T08:31:50.598Z,6582
2022-11-10T08:32:50.611Z,7142
2022-11-10T08:33:50.591Z,7142
2022-11-10T08:34:50.587Z,7564
2022-11-10T08:35:50.606Z,12170
2022-11-10T08:36:50.610Z,6156
2022-11-10T08:37:50.604Z,5916
2022-11-10T08:38:50.625Z,6340
2022-11-10T08:39:50.607Z,6808
2022-11-10T08:40:50.614Z,7033
2022-11-10T08:41:50.599Z,7288
2022-11-10T08:42:50.603Z,7306
2022-11-10T08:43:50.603Z,9815
2022-11-10T08:44:50.597Z,13610
2022-11-10T08:45:50.602Z,13632
2022-11-10T08:46:50.598Z,13840
2022-11-10T08:47:50.601Z,14094
2022-11-10T08:48:50.607Z,14227
2022-11-10T08:49:50.595Z,9844
2022-11-10T08:50:50.600Z,14047
2022-11-10T08:51:50.594Z,10255
2022-11-10T08:52:50.612Z,13748
2022-11-10T08:53:50.586Z,13748
2022-11-10T08:54:50.620Z,12367
2022-11-10T08:55:50.589Z,14559
2022-11-10T08:56:50.594Z,11293
2022-11-10T08:57:50.591Z,14170
2022-11-10T08:58:53.458Z,14308
2022-11-10T08:59:50.590Z,15528
2022-11-10T09:00:50.595Z,10865
2022-11-10T09:01:50.596Z,9715
2022-11-10T09:02:50.598Z,8690
2022-11-10T09:03:50.587Z,8690
2022-11-10T09:04:50.731Z,9444
2022-11-10T09:05:55.231Z,14708
2022-11-10T09:06:50.652Z,8865
2022-11-10T09:07:50.602Z,8865
2022-11-10T09:08:50.598Z,8239
2022-11-10T09:10:06.108Z,8019
2022-11-10T09:10:50.599Z,7818
2022-11-10T09:11:50.607Z,7654
2022-11-10T09:12:50.606Z,7564
2022-11-10T09:13:50.606Z,7993
2022-11-10T09:14:50.601Z,8275
2022-11-10T09:15:50.590Z,8071
2022-11-10T09:16:50.579Z,8071
2022-11-10T09:17:50.589Z,11361
2022-11-10T09:18:50.590Z,11361
2022-11-10T09:19:50.627Z,8246
2022-11-10T09:20:50.585Z,7807
2022-11-10T09:21:50.578Z,7741
2022-11-10T09:22:50.585Z,7885
2022-11-10T09:23:50.609Z,8220
2022-11-10T09:24:50.608Z,9767
2022-11-10T09:25:50.587Z,9459
2022-11-10T09:26:50.580Z,8926
2022-11-10T09:27:50.595Z,8922
2022-11-10T09:28:50.607Z,8736
2022-11-10T09:29:50.587Z,8954
2022-11-10T09:30:50.622Z,9297
2022-11-10T09:31:50.589Z,15643
2022-11-10T09:32:50.586Z,10622
2022-11-10T09:33:50.603Z,10386
2022-11-10T09:34:53.111Z,13162
2022-11-10T09:35:50.959Z,11070
2022-11-10T09:36:50.587Z,19136
2022-11-10T09:37:50.587Z,10755
2022-11-10T09:38:50.596Z,9391
2022-11-10T09:39:50.598Z,9125
2022-11-10T09:40:51.430Z,11448
2022-11-10T09:41:50.597Z,9103
2022-11-10T09:42:50.600Z,10353
2022-11-10T09:43:50.609Z,18526
2022-11-10T09:44:50.600Z,12716
2022-11-10T09:45:50.602Z,17434
2022-11-10T09:46:50.607Z,14894
2022-11-10T09:47:57.166Z,14963
2022-11-10T09:48:50.616Z,9824
2022-11-10T09:49:50.600Z,9979
2022-11-10T09:50:50.607Z,10008
2022-11-10T09:51:50.580Z,10008
2022-11-10T09:52:50.597Z,9604
2022-11-10T09:53:50.624Z,8773
2022-11-10T09:54:50.621Z,8593
2022-11-10T09:55:50.593Z,8823
2022-11-10T09:56:50.598Z,9501
2022-11-10T09:57:50.599Z,9424
2022-11-10T09:58:50.659Z,9840
2022-11-10T09:59:50.603Z,17049
2022-11-10T10:00:50.610Z,17309
2022-11-10T10:01:50.646Z,15628
2022-11-10T10:02:50.585Z,15628
2022-11-10T10:03:50.614Z,13892
2022-11-10T10:04:51.898Z,18730
2022-11-10T10:05:50.611Z,13976
2022-11-10T10:07:10.044Z,18747
2022-11-10T10:07:50.639Z,18909
2022-11-10T10:08:50.617Z,18909
2022-11-10T10:09:50.614Z,17641
2022-11-10T10:10:50.601Z,18247
2022-11-10T10:11:50.609Z,18686
2022-11-10T10:12:50.597Z,19018
2022-11-10T10:13:50.608Z,18526
2022-11-10T10:14:50.604Z,18426
2022-11-10T10:15:50.607Z,18677
2022-11-10T10:16:50.613Z,18297
2022-11-10T10:17:50.604Z,17390
2022-11-10T10:18:50.611Z,12452
2022-11-10T10:19:50.598Z,11195
2022-11-10T10:20:50.588Z,11195
2022-11-10T10:21:50.617Z,9944
2022-11-10T10:22:50.603Z,9886
2022-11-10T10:24:50.648Z,13798
2022-11-10T10:25:50.598Z,13212
2022-11-10T10:26:50.602Z,10909
2022-11-10T10:27:50.596Z,11186
2022-11-10T10:28:50.625Z,14229
2022-11-10T10:29:50.611Z,12786
2022-11-10T10:30:50.599Z,13536
2022-11-10T10:31:50.607Z,15222
2022-11-10T10:32:50.605Z,15444
2022-11-10T10:33:50.609Z,16043
2022-11-10T10:34:50.599Z,14487
2022-11-10T10:35:50.598Z,14487
2022-11-10T10:36:50.588Z,14806
2022-11-10T10:37:50.581Z,16024
2022-11-10T10:38:50.636Z,14360
2022-11-10T10:39:50.617Z,13483
2022-11-10T10:40:50.591Z,11582
2022-11-10T10:41:50.590Z,10928
2022-11-10T10:42:50.588Z,10296
2022-11-10T10:43:50.614Z,10174
2022-11-10T10:44:50.585Z,12450
2022-11-10T10:45:50.694Z,12613
2022-11-10T10:46:50.615Z,11440
2022-11-10T10:47:50.595Z,9678
2022-11-10T10:48:53.858Z,11155
2022-11-10T10:49:50.594Z,12205
2022-11-10T10:50:50.585Z,13379
2022-11-10T10:51:50.584Z,9361
2022-11-10T10:52:50.577Z,10323
2022-11-10T10:53:50.597Z,10323
2022-11-10T10:54:50.609Z,11862
2022-11-10T10:55:50.613Z,12801
2022-11-10T10:56:50.592Z,12976
2022-11-10T10:57:50.599Z,11595
2022-11-10T10:58:50.618Z,12259
2022-11-10T10:59:50.596Z,11390
2022-11-10T11:00:50.592Z,12605
2022-11-10T11:01:50.655Z,10380
2022-11-10T11:02:50.607Z,10410
2022-11-10T11:03:50.617Z,10410
2022-11-10T11:04:50.592Z,9184
2022-11-10T11:05:50.604Z,8510
2022-11-10T11:06:50.632Z,9302
2022-11-10T11:07:50.596Z,10297
2022-11-10T11:08:50.600Z,10297
2022-11-10T11:09:50.627Z,12144
2022-11-10T11:10:50.617Z,11287
2022-11-10T11:11:50.594Z,9350
2022-11-10T11:12:50.622Z,10012
2022-11-10T11:13:50.611Z,10745
2022-11-10T11:14:50.602Z,8497
2022-11-10T11:15:50.595Z,10014
2022-11-10T11:16:50.598Z,11676
2022-11-10T11:17:50.677Z,10585
2022-11-10T11:18:50.608Z,9510
2022-11-10T11:19:53.402Z,8884
2022-11-10T11:20:50.592Z,8375
2022-11-10T11:21:50.599Z,9632
2022-11-10T11:22:50.591Z,7680
2022-11-10T11:23:50.608Z,8069
2022-11-10T11:24:50.624Z,8069
2022-11-10T11:25:50.592Z,13282
2022-11-10T11:26:50.614Z,13433
2022-11-10T11:27:50.618Z,12526
2022-11-10T11:28:51.284Z,12019
2022-11-10T11:29:50.606Z,9298
2022-11-10T11:30:50.599Z,4611
2022-11-10T11:31:50.595Z,4042
2022-11-10T11:32:50.592Z,4025
2022-11-10T11:33:50.616Z,4349
2022-11-10T11:34:50.577Z,4349
2022-11-10T11:35:50.599Z,8270
2022-11-10T11:36:50.600Z,5435
2022-11-10T11:37:50.626Z,12002
2022-11-10T11:38:50.619Z,14148
2022-11-10T11:39:50.622Z,14572
2022-11-10T11:40:50.596Z,13783
2022-11-10T11:41:50.600Z,14411
2022-11-10T11:42:50.615Z,10664
2022-11-10T11:43:50.635Z,14745
2022-11-10T11:44:50.608Z,14968
2022-11-10T11:45:50.592Z,12148
2022-11-10T11:46:50.581Z,12148
2022-11-10T11:47:50.577Z,14896
2022-11-10T11:48:50.618Z,13512
2022-11-10T11:49:50.595Z,13057
2022-11-10T11:50:50.577Z,14225
2022-11-10T11:51:50.586Z,14152
2022-11-10T11:52:50.632Z,13824
2022-11-10T11:53:50.584Z,15838
2022-11-10T11:54:50.609Z,13269
2022-11-10T11:55:50.659Z,13543
2022-11-10T11:56:50.591Z,13534
2022-11-10T11:57:50.666Z,13951
2022-11-10T11:58:50.616Z,13905
2022-11-10T11:59:50.575Z,13903
2022-11-10T12:00:50.577Z,13919
2022-11-10T12:01:50.582Z,13934
2022-11-10T12:02:53.164Z,13661
2022-11-10T12:03:50.610Z,13916
2022-11-10T12:04:50.583Z,14074
2022-11-10T12:05:50.593Z,13766
2022-11-10T12:06:50.610Z,13766
2022-11-10T12:07:50.588Z,13881
2022-11-10T12:08:50.618Z,13881
2022-11-10T12:09:50.616Z,13595
2022-11-10T12:10:50.597Z,8462
2022-11-10T12:11:50.594Z,14109
2022-11-10T12:12:50.596Z,13975
2022-11-10T12:13:50.608Z,13741
2022-11-10T12:14:50.597Z,13868
2022-11-10T12:15:50.588Z,13107
2022-11-10T12:16:50.596Z,12795
2022-11-10T12:17:50.635Z,13298
2022-11-10T12:18:50.605Z,13339
2022-11-10T12:19:50.587Z,13306
2022-11-10T12:20:50.650Z,13101
2022-11-10T12:21:50.600Z,12439
2022-11-10T12:22:50.592Z,12920
2022-11-10T12:23:50.633Z,11472
2022-11-10T12:24:50.613Z,12144
2022-11-10T12:25:50.588Z,4654
2022-11-10T12:26:50.646Z,4243
2022-11-10T12:27:50.579Z,4243
2022-11-10T12:28:50.621Z,8698
2022-11-10T12:29:50.627Z,5723
2022-11-10T12:30:50.593Z,5472
2022-11-10T12:31:50.602Z,4580
2022-11-10T12:32:50.638Z,4497
2022-11-10T12:33:50.605Z,8255
2022-11-10T12:34:50.605Z,11637
2022-11-10T12:35:50.601Z,11451
2022-11-10T12:36:50.600Z,11553
2022-11-10T12:37:50.584Z,11553
2022-11-10T12:38:50.639Z,12172
2022-11-10T12:39:50.617Z,12308
2022-11-10T12:40:50.601Z,12039
2022-11-10T12:41:50.599Z,12542
2022-11-10T12:42:50.606Z,13033
2022-11-10T12:43:50.622Z,12262
2022-11-10T12:44:50.676Z,12353
2022-11-10T12:45:50.590Z,13752
2022-11-10T12:46:52.100Z,12474
2022-11-10T12:47:50.606Z,12681
2022-11-10T12:48:50.609Z,12590
2022-11-10T12:49:50.594Z,12732
2022-11-10T12:50:50.596Z,12684
2022-11-10T12:51:50.589Z,12760
2022-11-10T12:52:50.598Z,12485
2022-11-10T12:53:50.600Z,12240
2022-11-10T12:54:50.606Z,12146
2022-11-10T12:55:50.582Z,12146
2022-11-10T12:56:50.586Z,12098
2022-11-10T12:57:50.579Z,12353
2022-11-10T12:58:50.611Z,11319
2022-11-10T12:59:50.581Z,11282
2022-11-10T13:00:50.573Z,11239
2022-11-10T13:01:50.623Z,11164
2022-11-10T13:02:50.578Z,11031
2022-11-10T13:03:50.619Z,10847
2022-11-10T13:04:50.598Z,10909
2022-11-10T13:05:50.591Z,10784
2022-11-10T13:06:50.659Z,10705
2022-11-10T13:07:50.574Z,10729
2022-11-10T13:08:50.596Z,10567
2022-11-10T13:09:50.604Z,10567
2022-11-10T13:10:50.579Z,10286
2022-11-10T13:11:50.587Z,10390
2022-11-10T13:12:50.585Z,10432
2022-11-10T13:13:52.207Z,10567
2022-11-10T13:14:50.578Z,10740
2022-11-10T13:15:50.621Z,10244
2022-11-10T13:16:50.601Z,10156
2022-11-10T13:17:50.605Z,9925
2022-11-10T13:18:50.603Z,9792
2022-11-10T13:19:50.597Z,9608
2022-11-10T13:20:50.621Z,3726
2022-11-10T13:21:50.607Z,8819
2022-11-10T13:22:50.597Z,8823
2022-11-10T13:23:50.627Z,8522
2022-11-10T13:24:50.677Z,8476
2022-11-10T13:25:50.594Z,8502
2022-11-10T13:26:50.632Z,8298
2022-11-10T13:27:50.595Z,8403
2022-11-10T13:28:50.614Z,8393
2022-11-10T13:29:50.591Z,8318
2022-11-10T13:30:50.640Z,8292
2022-11-10T13:31:50.602Z,8216
2022-11-10T13:32:50.580Z,8216
2022-11-10T13:33:50.614Z,7864
2022-11-10T13:34:50.594Z,7828
2022-11-10T13:35:54.697Z,7697
2022-11-10T13:36:50.598Z,7407
2022-11-10T13:37:50.959Z,7339
2022-11-10T13:38:50.608Z,7131
2022-11-10T13:39:50.603Z,4923
2022-11-10T13:40:50.591Z,7302
2022-11-10T13:41:50.606Z,6722
2022-11-10T13:42:50.590Z,6602
2022-11-10T13:43:50.673Z,6228
2022-11-10T13:44:50.584Z,6451
2022-11-10T13:45:50.596Z,6576
2022-11-10T13:46:50.635Z,6600
2022-11-10T13:47:50.596Z,3083